Time;durP1;ratioP1;P1;durP2;ratioP2;P2;SDS_P1;SDS_P2;PMS_P1;PMS_P2;Temp;Humidity;BMP_temperature;BMP_pressure;BME280_temperature;BME280_humidity;BME280_pressure;Samples;Min_cycle;Max_cycle;Signal;HPM_P1;HPM_P2
2023/01/12 00:01:09;;;;;;;44.40;16.20;;;;;;;-3.63;100.00;101189.69;107183;1268;59088;-64
2023/01/12 00:03:35;;;;;;;43.90;17.50;;;;;;;-3.00;98.33;101187.83;107136;1268;59362;-64
2023/01/12 00:06:06;;;;;;;44.70;16.40;;;;;;;-2.54;95.32;101186.79;107179;1268;73230;-64
2023/01/12 00:08:33;;;;;;;36.50;15.10;;;;;;;-2.59;93.59;101179.93;107203;1269;71248;-63
2023/01/12 00:11:01;;;;;;;39.10;15.20;;;;;;;-2.41;92.76;101182.23;107467;1256;118816;-64
2023/01/12 00:13:29;;;;;;;40.60;15.30;;;;;;;-2.13;91.49;101187.27;107759;1257;61272;-63
2023/01/12 00:18:46;;;;;;;38.60;14.70;;;;;;;-1.52;89.26;101189.63;107769;1258;73336;-64
2023/01/12 00:21:12;;;;;;;28.30;12.70;;;;;;;-1.15;87.81;101199.28;107794;1257;70608;-64
2023/01/12 00:23:41;;;;;;;35.20;14.00;;;;;;;-0.82;86.48;101200.69;107789;1257;73545;-64
2023/01/12 00:26:09;;;;;;;25.20;11.40;;;;;;;-0.71;83.75;101205.64;107780;1258;60643;-64
2023/01/12 00:28:36;;;;;;;33.50;12.80;;;;;;;-1.01;83.10;101209.67;107766;1259;61316;-64
2023/01/12 00:31:08;;;;;;;23.60;8.90;;;;;;;-0.95;81.37;101206.02;107807;1257;74481;-64
2023/01/12 00:33:35;;;;;;;28.80;11.60;;;;;;;-0.86;80.05;101210.23;107816;1257;70448;-64
2023/01/12 00:36:07;;;;;;;24.00;10.00;;;;;;;-0.62;79.32;101206.55;107815;1257;72668;-63
2023/01/12 00:38:35;;;;;;;26.60;11.20;;;;;;;-0.60;78.82;101201.79;107751;1257;62304;-64
2023/01/12 00:41:09;;;;;;;24.00;10.30;;;;;;;-0.70;78.88;101208.25;107819;1257;59501;-64
2023/01/12 00:46:29;;;;;;;26.60;10.00;;;;;;;-0.48;77.24;101214.33;107741;1257;71511;-64
2023/01/12 00:48:56;;;;;;;23.40;10.40;;;;;;;-0.56;77.39;101223.28;107754;1257;71481;-64
2023/01/12 00:51:23;;;;;;;24.00;10.90;;;;;;;-0.34;76.70;101215.71;107730;1257;60509;-63
2023/01/12 00:53:49;;;;;;;29.70;11.30;;;;;;;0.02;69.46;101213.99;107827;1257;61254;-64
2023/01/12 00:56:18;;;;;;;23.50;10.20;;;;;;;0.24;66.65;101211.73;107697;1257;73988;-64
2023/01/12 00:58:45;;;;;;;29.50;12.20;;;;;;;0.16;66.02;101216.55;107797;1259;69224;-63
2023/01/12 01:01:12;;;;;;;20.10;9.50;;;;;;;-0.12;66.25;101219.00;107654;1258;74268;-64
2023/01/12 01:03:39;;;;;;;24.50;10.30;;;;;;;-0.02;66.10;101218.55;107654;1259;61345;-64
2023/01/12 01:06:06;;;;;;;27.70;11.80;;;;;;;-0.02;65.19;101216.31;107678;1263;59545;-65
2023/01/12 01:08:35;;;;;;;26.10;11.30;;;;;;;-0.15;65.33;101216.17;107613;1260;73832;-64
2023/01/12 01:11:10;;;;;;;27.70;10.00;;;;;;;-0.17;65.42;101213.02;107591;1259;71265;-63
2023/01/12 01:13:39;;;;;;;25.00;10.30;;;;;;;0.10;64.50;101211.56;107548;1259;73865;-63
2023/01/12 01:16:07;;;;;;;24.70;9.50;;;;;;;0.09;64.47;101205.70;107593;1259;60064;-63
2023/01/12 01:18:34;;;;;;;24.20;9.80;;;;;;;-0.00;64.68;101212.55;107587;1261;61548;-65
2023/01/12 01:21:04;;;;;;;23.30;9.00;;;;;;;0.00;64.38;101213.09;107561;1259;74044;-64
2023/01/12 01:23:32;;;;;;;23.70;9.90;;;;;;;-0.07;64.75;101214.46;107608;1259;72120;-64
2023/01/12 01:26:07;;;;;;;23.10;10.70;;;;;;;-0.14;65.13;101216.20;107701;1259;72675;-63
2023/01/12 01:28:35;;;;;;;26.30;10.40;;;;;;;-0.26;65.04;101216.77;107539;1259;61185;-63
2023/01/12 01:31:03;;;;;;;24.60;9.60;;;;;;;-0.14;65.33;101221.73;107622;1258;60104;-63
2023/01/12 01:33:30;;;;;;;34.00;11.90;;;;;;;-0.06;64.94;101222.08;107605;1261;73954;-64
2023/01/12 01:35:57;;;;;;;84.40;28.70;;;;;;;-0.09;64.77;101222.20;107674;1259;71088;-64
2023/01/12 01:38:24;;;;;;;34.30;13.40;;;;;;;-0.09;65.21;101226.82;107653;1259;72677;-63
2023/01/12 01:40:51;;;;;;;145.50;54.60;;;;;;;-0.34;65.81;101233.15;107679;1259;61194;-64
2023/01/12 01:43:18;;;;;;;51.90;21.80;;;;;;;-0.35;63.92;101231.23;107502;1259;61128;-65
2023/01/12 01:45:46;;;;;;;30.80;13.70;;;;;;;-0.09;58.04;101229.27;107666;1259;73598;-65
2023/01/12 01:48:14;;;;;;;29.80;15.20;;;;;;;0.07;57.20;101235.17;107694;1259;69666;-65
2023/01/12 01:50:43;;;;;;;33.20;14.60;;;;;;;0.20;57.72;101225.28;107559;1259;73715;-64
2023/01/12 01:53:13;;;;;;;25.30;12.50;;;;;;;0.04;57.95;101222.65;107576;1259;62546;-64
2023/01/12 01:55:48;;;;;;;45.10;21.30;;;;;;;0.36;57.59;101224.27;107756;1259;60168;-64
2023/01/12 01:58:17;;;;;;;31.00;15.70;;;;;;;0.57;57.25;101225.06;107696;1259;73297;-64
2023/01/12 02:00:45;;;;;;;23.60;11.30;;;;;;;0.87;56.03;101228.44;107644;1260;70544;-64
2023/01/12 02:03:12;;;;;;;27.10;11.00;;;;;;;1.05;55.10;101219.46;107555;1259;72069;-64
2023/01/12 02:05:40;;;;;;;39.70;19.80;;;;;;;1.12;54.30;101222.01;107522;1260;61968;-62
2023/01/12 02:08:18;;;;;;;29.10;13.60;;;;;;;1.59;53.31;101227.20;107492;1260;61348;-64
2023/01/12 02:10:45;;;;;;;23.60;10.60;;;;;;;1.73;52.66;101223.95;107496;1260;73921;-64
2023/01/12 02:16:22;;;;;;;26.80;11.10;;;;;;;2.03;51.43;101233.27;107545;1259;73793;-64
2023/01/12 02:19:18;;;;;;;24.70;11.30;;;;;;;1.86;51.87;101228.67;107577;1259;62221;-66
2023/01/12 02:22:16;;;;;;;27.10;11.10;;;;;;;1.66;52.42;101221.77;107551;1260;60485;-64
2023/01/12 02:25:05;;;;;;;27.70;13.50;;;;;;;1.05;53.78;101217.36;107528;1260;72616;-64
2023/01/12 02:27:42;;;;;;;29.90;13.00;;;;;;;0.91;54.30;101212.11;107555;1259;70285;-65
2023/01/12 02:30:42;;;;;;;32.10;12.00;;;;;;;1.12;54.00;101220.63;107536;1260;71828;-64
2023/01/12 02:33:31;;;;;;;36.80;11.60;;;;;;;1.25;54.03;101221.91;107524;1261;61052;-65
2023/01/12 02:36:13;;;;;;;20.40;10.90;;;;;;;1.00;54.26;101225.92;107528;1260;61405;-64
2023/01/12 02:38:51;;;;;;;21.90;11.00;;;;;;;0.96;54.55;101216.35;107493;1264;72225;-64
2023/01/12 02:44:20;;;;;;;35.90;14.60;;;;;;;0.67;55.54;101215.59;107426;1261;73806;-67
2023/01/12 02:46:46;;;;;;;30.40;12.80;;;;;;;0.88;55.22;101211.84;107508;1260;61826;-64
2023/01/12 02:49:14;;;;;;;29.00;12.80;;;;;;;0.79;54.98;101208.39;107380;1260;61417;-65
2023/01/12 02:51:47;;;;;;;25.60;13.30;;;;;;;1.00;55.02;101208.80;107498;1260;72876;-65
2023/01/12 02:54:14;;;;;;;24.10;9.60;;;;;;;1.01;55.36;101209.52;107660;1256;69266;-65
2023/01/12 02:56:47;;;;;;;37.10;16.70;;;;;;;0.69;55.50;101213.02;107686;1256;71890;-64
2023/01/12 02:59:35;;;;;;;28.30;14.00;;;;;;;0.78;55.12;101210.96;107902;1256;61197;-65
2023/01/12 03:02:18;;;;;;;26.90;12.20;;;;;;;0.92;54.50;101206.73;107608;1257;60368;-64
2023/01/12 03:04:45;;;;;;;29.50;13.90;;;;;;;0.86;54.60;101213.73;107925;1258;74066;-64
2023/01/12 03:07:37;;;;;;;22.40;8.60;;;;;;;1.14;54.21;101209.59;107842;1257;70567;-65
2023/01/12 03:10:41;;;;;;;26.30;8.90;;;;;;;1.12;54.93;101208.51;107839;1256;73730;-65
2023/01/12 03:13:10;;;;;;;23.00;8.70;;;;;;;0.83;55.43;101205.38;107826;1256;61403;-64
2023/01/12 03:15:40;;;;;;;20.40;9.00;;;;;;;0.80;55.73;101194.59;107835;1260;61345;-64
2023/01/12 03:18:14;;;;;;;35.20;14.60;;;;;;;0.90;55.46;101202.91;107612;1261;72753;-65
2023/01/12 03:20:50;;;;;;;22.80;8.90;;;;;;;1.32;55.25;101198.17;107844;1258;71585;-64
2023/01/12 03:23:20;;;;;;;26.80;12.20;;;;;;;1.29;54.63;101198.10;107868;1258;71615;-63
2023/01/12 03:25:48;;;;;;;24.30;10.90;;;;;;;1.47;54.24;101189.60;107865;1257;61065;-64
2023/01/12 03:28:15;;;;;;;25.40;11.10;;;;;;;1.14;55.07;101193.13;107952;1257;59428;-64
2023/01/12 03:30:44;;;;;;;19.80;10.40;;;;;;;0.91;55.52;101191.34;107681;1257;74339;-64
2023/01/12 03:33:12;;;;;;;34.80;14.50;;;;;;;1.30;54.63;101187.04;107817;1258;71218;-63
2023/01/12 03:35:42;;;;;;;33.90;13.90;;;;;;;0.98;54.93;101187.64;107802;1257;72703;-63
2023/01/12 03:38:18;;;;;;;26.00;11.40;;;;;;;1.08;55.84;101183.20;107786;1258;62895;-64
2023/01/12 03:40:47;;;;;;;29.60;12.10;;;;;;;1.59;54.73;101171.80;107813;1257;60420;-63
2023/01/12 03:43:16;;;;;;;25.80;10.50;;;;;;;1.61;54.18;101171.13;107835;1257;73899;-65
2023/01/12 03:45:48;;;;;;;37.50;15.30;;;;;;;1.19;55.50;101167.65;107726;1257;70497;-64
2023/01/12 03:48:31;;;;;;;34.20;14.90;;;;;;;1.62;54.39;101168.72;107554;1257;73082;-65
2023/01/12 03:51:13;;;;;;;30.40;12.70;;;;;;;1.92;53.38;101166.23;107856;1257;62132;-64
2023/01/12 03:53:40;;;;;;;21.90;10.70;;;;;;;2.05;53.00;101160.73;107725;1257;61640;-64
2023/01/12 03:56:08;;;;;;;20.70;10.10;;;;;;;2.27;52.60;101163.80;107858;1257;71828;-63
2023/01/12 03:58:34;;;;;;;24.50;10.90;;;;;;;2.54;52.10;101171.08;107875;1257;71786;-65
2023/01/12 04:01:02;;;;;;;25.90;10.50;;;;;;;2.41;52.35;101168.66;107857;1259;73712;-66
2023/01/12 04:03:29;;;;;;;19.70;10.30;;;;;;;2.42;52.61;101163.12;107704;1257;61178;-64
2023/01/12 04:05:56;;;;;;;22.90;9.90;;;;;;;2.61;52.42;101155.04;107850;1257;60426;-65
2023/01/12 04:08:24;;;;;;;17.70;7.70;;;;;;;2.86;52.36;101153.92;107857;1256;73899;-63
2023/01/12 04:10:50;;;;;;;23.50;10.00;;;;;;;2.96;52.17;101153.52;107869;1257;71009;-64
2023/01/12 08:21:44;;;;;;;26.90;12.00;;;;;;;-0.53;100.00;101109.55;105742;1283;612721;-65
2023/01/12 08:24:16;;;;;;;20.90;9.20;;;;;;;0.98;100.00;101105.87;107356;1264;117711;-67
2023/01/12 08:26:44;;;;;;;28.40;11.00;;;;;;;0.81;100.00;101111.63;107494;1263;61329;-65
2023/01/12 08:29:28;;;;;;;19.70;9.00;;;;;;;0.78;100.00;101111.39;107511;1263;71111;-65
2023/01/12 08:32:03;;;;;;;37.90;13.20;;;;;;;0.78;100.00;101112.10;107432;1264;70286;-65
2023/01/12 08:34:34;;;;;;;28.70;11.00;;;;;;;0.73;100.00;101113.54;107429;1264;72688;-64
2023/01/12 08:37:04;;;;;;;31.30;11.50;;;;;;;0.94;100.00;101110.30;107437;1264;61528;-67
2023/01/12 08:39:34;;;;;;;53.80;17.70;;;;;;;1.14;99.38;101103.92;107409;1266;61178;-65
2023/01/12 08:42:01;;;;;;;34.00;11.60;;;;;;;1.50;96.87;101104.33;107405;1264;71211;-64
2023/01/12 08:44:33;;;;;;;36.10;13.20;;;;;;;1.34;96.93;101100.26;107417;1264;71026;-64
2023/01/12 08:47:00;;;;;;;33.50;13.10;;;;;;;1.56;95.85;101093.16;107418;1264;71860;-65
2023/01/12 08:49:27;;;;;;;33.60;13.60;;;;;;;1.53;95.68;101089.84;107375;1264;62072;-65
2023/01/12 08:51:54;;;;;;;28.00;11.10;;;;;;;1.41;96.38;101091.20;107435;1264;61108;-64
2023/01/12 08:54:21;;;;;;;35.40;12.70;;;;;;;1.43;95.22;101093.66;107427;1264;72630;-62
2023/01/12 08:56:48;;;;;;;52.90;18.00;;;;;;;1.31;93.62;101089.66;107466;1264;71228;-66
2023/01/12 08:59:15;;;;;;;63.60;21.30;;;;;;;1.36;83.64;101086.98;107381;1264;73872;-65
2023/01/12 09:01:42;;;;;;;36.80;14.20;;;;;;;1.42;83.41;101079.63;107944;1257;62366;-64
2023/01/12 09:04:09;;;;;;;43.70;15.80;;;;;;;1.66;82.65;101076.35;107936;1257;61427;-64
2023/01/12 09:06:40;;;;;;;42.20;15.40;;;;;;;1.83;82.48;101074.35;107965;1258;73703;-65
2023/01/12 09:09:09;;;;;;;30.90;13.20;;;;;;;2.03;82.04;101073.05;107927;1261;71511;-65
2023/01/12 09:11:36;;;;;;;29.50;12.10;;;;;;;1.87;81.92;101076.30;107910;1257;71798;-65
2023/01/12 09:14:03;;;;;;;33.80;12.20;;;;;;;2.00;75.80;101074.05;107793;1258;62204;-64
2023/01/12 09:16:31;;;;;;;30.50;12.70;;;;;;;1.88;71.10;101076.31;107934;1258;60332;-65
2023/01/12 09:18:58;;;;;;;32.40;12.80;;;;;;;2.04;70.29;101072.02;107742;1258;72684;-65
2023/01/12 09:21:26;;;;;;;34.10;12.80;;;;;;;2.24;68.68;101058.77;107936;1257;70118;-65
2023/01/12 09:23:53;;;;;;;26.00;11.00;;;;;;;2.20;68.39;101060.62;107964;1258;72796;-64
2023/01/12 09:26:25;;;;;;;29.10;11.50;;;;;;;2.05;68.26;101064.77;107973;1257;59583;-65
2023/01/12 09:28:55;;;;;;;42.00;12.40;;;;;;;2.23;67.65;101058.22;107959;1256;61324;-64
2023/01/12 09:31:23;;;;;;;106.00;28.40;;;;;;;2.40;67.25;101063.79;108185;1256;74250;-65
2023/01/12 09:33:50;;;;;;;45.70;17.00;;;;;;;2.51;66.57;101063.04;108161;1255;71538;-64
2023/01/12 09:36:21;;;;;;;22.80;11.10;;;;;;;2.55;66.38;101063.96;108145;1254;73562;-64
2023/01/12 09:38:48;;;;;;;24.80;11.30;;;;;;;2.61;67.12;101064.19;108191;1254;62411;-64
2023/01/12 09:47:46;;;;;;;25.80;11.50;;;;;;;2.40;66.25;101068.45;108123;1254;70429;-65
2023/01/12 09:50:24;;;;;;;23.60;9.90;;;;;;;2.17;67.02;101075.81;108159;1254;73628;-65
2023/01/12 09:52:56;;;;;;;30.10;12.70;;;;;;;2.57;66.72;101066.23;108195;1254;61994;-65
2023/01/12 09:55:24;;;;;;;19.20;9.80;;;;;;;2.73;66.51;101063.27;108243;1254;60998;-64
2023/01/12 09:57:58;;;;;;;25.30;12.10;;;;;;;2.87;65.33;101065.83;108106;1257;74160;-65
2023/01/12 10:00:27;;;;;;;46.00;15.80;;;;;;;3.57;63.46;101060.32;108221;1254;70931;-64
2023/01/12 10:03:37;;;;;;;37.70;15.00;;;;;;;3.48;63.08;101059.21;108201;1257;71951;-64
2023/01/12 10:06:05;;;;;;;35.90;14.70;;;;;;;3.31;63.53;101064.98;107900;1255;61499;-64
2023/01/12 10:08:40;;;;;;;24.10;10.10;;;;;;;3.15;63.14;101066.60;108210;1253;61312;-65
2023/01/12 10:11:12;;;;;;;39.20;15.10;;;;;;;2.88;63.87;101066.18;108105;1254;74061;-64
2023/01/12 10:14:10;;;;;;;46.60;16.20;;;;;;;3.01;62.96;101067.19;108055;1254;71125;-64
2023/01/12 10:17:02;;;;;;;37.10;13.90;;;;;;;2.89;62.99;101066.20;108063;1254;72361;-64
2023/01/12 10:19:41;;;;;;;33.30;13.70;;;;;;;2.95;62.93;101062.62;108053;1260;62636;-64
2023/01/12 10:22:35;;;;;;;23.50;11.30;;;;;;;3.03;62.93;101069.27;108116;1256;60349;-64
2023/01/12 10:25:23;;;;;;;28.70;10.90;;;;;;;2.99;62.53;101069.23;108086;1259;73540;-65
2023/01/12 10:27:54;;;;;;;27.80;11.80;;;;;;;2.64;63.43;101063.36;108081;1254;71247;-65
2023/01/12 10:30:30;;;;;;;31.80;12.80;;;;;;;2.91;62.65;101051.48;108099;1254;73749;-65
2023/01/12 10:33:17;;;;;;;21.80;10.30;;;;;;;2.91;62.64;101051.30;108092;1259;62975;-65
2023/01/12 10:35:56;;;;;;;42.40;15.30;;;;;;;2.96;62.69;101046.31;108095;1255;60424;-65
2023/01/12 10:38:26;;;;;;;46.70;15.50;;;;;;;3.11;62.48;101041.77;108033;1256;74252;-65
2023/01/12 10:41:12;;;;;;;39.80;14.50;;;;;;;3.43;62.23;101038.87;108088;1254;71352;-65
2023/01/12 10:43:40;;;;;;;34.70;13.00;;;;;;;3.47;62.23;101038.39;108031;1259;73403;-65
2023/01/12 10:46:17;;;;;;;34.20;13.80;;;;;;;3.52;62.38;101034.41;108100;1257;60159;-65
2023/01/12 10:48:48;;;;;;;69.40;19.50;;;;;;;3.50;61.13;101028.52;108059;1254;59123;-65
2023/01/12 10:51:27;;;;;;;46.60;17.20;;;;;;;3.42;60.89;101028.80;108089;1254;73041;-65
2023/01/12 10:53:58;;;;;;;34.10;15.00;;;;;;;3.47;60.80;101021.55;108072;1258;68050;-64
2023/01/12 10:56:28;;;;;;;38.10;14.40;;;;;;;3.46;61.19;101022.05;108068;1258;73800;-65
2023/01/12 10:58:59;;;;;;;47.10;15.60;;;;;;;3.41;60.82;101014.73;108030;1259;60510;-64
2023/01/12 11:01:44;;;;;;;51.40;19.50;;;;;;;3.51;60.35;101013.40;108006;1257;61508;-64
2023/01/12 11:04:13;;;;;;;42.80;15.40;;;;;;;3.73;59.78;101013.34;108026;1258;74209;-64
2023/01/12 11:06:45;;;;;;;47.80;18.80;;;;;;;3.86;59.65;101014.80;108039;1257;70982;-64
2023/01/12 11:09:25;;;;;;;29.10;13.70;;;;;;;3.58;60.28;101015.36;108026;1255;73491;-64
2023/01/12 11:11:53;;;;;;;33.20;14.40;;;;;;;3.43;60.58;101022.04;108064;1254;60136;-64
2023/01/12 11:14:38;;;;;;;48.40;18.30;;;;;;;3.46;60.51;101021.36;108107;1256;59611;-64
2023/01/12 11:17:35;;;;;;;45.20;18.80;;;;;;;3.51;60.01;101017.23;108162;1255;74256;-64
2023/01/12 11:20:02;;;;;;;43.50;16.50;;;;;;;3.74;59.26;101010.58;108153;1257;70584;-64
2023/01/12 11:22:31;;;;;;;45.80;17.80;;;;;;;3.86;59.15;101015.66;108134;1254;73879;-64
2023/01/12 11:25:20;;;;;;;41.20;17.10;;;;;;;3.93;59.18;101017.77;108154;1260;62070;-64
2023/01/12 11:27:49;;;;;;;31.70;12.70;;;;;;;3.74;59.45;101018.22;108093;1254;61373;-64
2023/01/12 11:30:25;;;;;;;38.90;16.40;;;;;;;3.93;59.37;101019.18;108225;1253;74017;-64
2023/01/12 11:32:58;;;;;;;44.00;17.80;;;;;;;4.01;58.90;101022.69;108109;1255;71322;-65
2023/01/12 11:35:30;;;;;;;41.50;17.20;;;;;;;4.10;58.35;101021.85;108229;1254;72802;-65
2023/01/12 11:38:00;;;;;;;49.80;20.70;;;;;;;4.18;58.76;101020.32;108151;1255;60037;-64
2023/01/12 11:40:34;;;;;;;49.40;18.50;;;;;;;4.23;58.35;101010.61;108227;1253;61114;-64
2023/01/12 11:46:26;;;;;;;34.30;15.70;;;;;;;4.11;58.72;100999.45;108008;1257;71532;-66
2023/01/12 11:48:59;;;;;;;34.80;16.40;;;;;;;4.25;58.18;101001.39;108147;1254;72415;-64
2023/01/12 11:51:26;;;;;;;36.70;16.30;;;;;;;4.37;57.91;101006.98;108183;1254;60921;-64
2023/01/12 11:53:53;;;;;;;29.00;13.90;;;;;;;4.50;57.93;101003.54;108148;1254;59163;-65
2023/01/12 16:23:45;;;;;;;54.90;23.90;;;;;;;-1.26;100.00;101000.98;105643;1282;613280;-66
2023/01/12 16:26:13;;;;;;;53.90;25.70;;;;;;;-0.04;100.00;100994.41;107038;1265;260953;-65
2023/01/12 16:28:39;;;;;;;64.40;28.10;;;;;;;0.18;100.00;100997.27;107248;1265;62367;-65
2023/01/12 16:31:11;;;;;;;76.80;29.50;;;;;;;0.41;100.00;100996.14;107306;1270;72287;-65
2023/01/12 16:33:39;;;;;;;64.50;22.80;;;;;;;0.29;100.00;100991.27;107304;1266;70412;-66
2023/01/12 16:36:06;;;;;;;62.00;25.90;;;;;;;0.14;100.00;100986.84;107326;1266;73329;-66
2023/01/12 16:38:34;;;;;;;58.50;25.00;;;;;;;0.27;100.00;100978.08;108082;1256;62858;-66
2023/01/12 16:41:12;;;;;;;62.00;26.50;;;;;;;0.16;100.00;100980.31;107950;1255;59524;-66
2023/01/12 16:43:39;;;;;;;58.10;27.10;;;;;;;0.17;100.00;100983.08;107970;1254;73873;-64
2023/01/12 16:46:06;;;;;;;56.90;27.20;;;;;;;0.33;100.00;100982.69;107961;1255;72275;-65
2023/01/12 16:48:33;;;;;;;54.90;24.50;;;;;;;0.41;100.00;100985.60;107958;1256;73507;-66
2023/01/12 16:51:00;;;;;;;90.00;45.30;;;;;;;0.43;100.00;100981.32;107972;1256;61531;-65
2023/01/12 16:53:27;;;;;;;194.00;97.90;;;;;;;0.64;98.92;100973.39;108015;1259;62489;-66
2023/01/12 16:55:54;;;;;;;73.00;34.20;;;;;;;0.76;97.86;100967.38;107997;1256;75363;-66
2023/01/12 16:58:21;;;;;;;71.30;33.00;;;;;;;0.78;96.96;100960.48;107964;1254;71221;-64
2023/01/12 17:00:48;;;;;;;58.50;25.70;;;;;;;0.56;97.56;100957.71;107961;1255;74804;-66
2023/01/12 17:03:15;;;;;;;65.30;27.40;;;;;;;0.21;99.10;100965.20;108016;1256;63989;-64
2023/01/12 17:05:42;;;;;;;66.60;29.20;;;;;;;0.58;98.47;100967.59;108150;1256;61455;-62
2023/01/12 17:08:10;;;;;;;68.10;30.40;;;;;;;0.71;97.24;100966.06;108022;1255;73919;-65
2023/01/12 17:10:37;;;;;;;53.70;20.50;;;;;;;0.78;96.92;100970.16;107955;1254;72059;-65
2023/01/12 17:13:04;;;;;;;65.70;27.00;;;;;;;0.69;96.84;100967.06;107980;1256;71687;-66
2023/01/12 17:15:30;;;;;;;74.50;30.90;;;;;;;0.58;97.36;100961.71;107939;1257;63935;-65
2023/01/12 17:17:58;;;;;;;69.40;29.60;;;;;;;0.93;96.20;100956.23;107654;1261;61480;-65
2023/01/12 17:20:26;;;;;;;67.30;29.90;;;;;;;1.01;95.86;100954.45;108029;1256;73076;-65
2023/01/12 17:22:53;;;;;;;78.70;28.90;;;;;;;1.17;95.20;100958.66;107938;1256;72381;-65
2023/01/12 17:25:20;;;;;;;77.00;29.00;;;;;;;1.19;95.32;100952.81;107908;1260;72671;-66
2023/01/12 17:27:47;;;;;;;78.50;30.20;;;;;;;1.27;94.69;100948.94;107900;1256;61245;-66
2023/01/12 17:30:15;;;;;;;85.40;35.20;;;;;;;1.08;93.97;100949.71;107876;1256;62380;-66
2023/01/12 17:32:42;;;;;;;65.20;28.60;;;;;;;0.98;93.98;100949.23;107947;1256;73487;-67
2023/01/12 17:35:09;;;;;;;61.10;28.30;;;;;;;1.00;94.02;100949.41;107852;1256;72658;-66
2023/01/12 17:37:36;;;;;;;63.30;27.20;;;;;;;1.14;94.47;100955.84;107890;1256;74835;-64
2023/01/12 17:40:04;;;;;;;75.50;32.30;;;;;;;1.22;93.75;100953.89;107888;1257;62211;-66
2023/01/12 17:45:16;;;;;;;64.50;24.40;;;;;;;1.11;93.29;100964.96;107864;1261;75175;-66
2023/01/12 17:47:43;;;;;;;112.70;38.70;;;;;;;1.22;93.19;100960.80;107859;1256;72686;-65
2023/01/12 17:50:10;;;;;;;65.20;27.10;;;;;;;1.10;93.10;100959.94;107992;1257;74688;-66
2023/01/12 17:52:37;;;;;;;62.70;26.90;;;;;;;1.09;92.83;100957.16;107972;1256;62395;-65
2023/01/12 17:55:05;;;;;;;79.30;34.50;;;;;;;1.20;92.80;100956.98;107993;1256;62344;-65
2023/01/12 17:57:34;;;;;;;81.80;29.60;;;;;;;1.24;92.45;100955.14;107882;1261;74947;-65
2023/01/12 18:00:07;;;;;;;72.50;27.20;;;;;;;1.02;85.53;100950.83;107840;1257;71091;-65
2023/01/12 18:02:43;;;;;;;85.10;30.70;;;;;;;1.09;82.80;100947.48;107786;1256;73966;-65
2023/01/12 18:05:10;;;;;;;83.20;32.30;;;;;;;1.31;81.20;100943.98;107894;1259;64393;-66
2023/01/12 18:07:37;;;;;;;83.60;26.30;;;;;;;1.42;80.72;100944.65;107854;1256;62440;-65
2023/01/12 18:10:09;;;;;;;89.90;32.20;;;;;;;1.55;71.99;100939.27;107830;1256;75046;-65
2023/01/12 18:12:36;;;;;;;82.80;29.70;;;;;;;1.73;68.79;100935.01;107856;1256;72424;-65
2023/01/12 18:15:04;;;;;;;74.90;26.70;;;;;;;1.57;68.95;100935.33;107865;1258;74876;-67
2023/01/12 18:17:31;;;;;;;53.30;18.90;;;;;;;1.36;69.45;100940.60;107672;1256;62989;-65
2023/01/12 18:19:58;;;;;;;80.20;26.40;;;;;;;1.34;68.85;100945.95;107823;1262;61777;-66
2023/01/12 18:22:25;;;;;;;80.00;27.90;;;;;;;1.13;69.14;100956.70;107818;1261;74446;-67
2023/01/12 18:24:52;;;;;;;84.30;31.20;;;;;;;1.24;68.98;100954.79;107918;1260;71705;-66
2023/01/12 18:27:19;;;;;;;71.90;27.70;;;;;;;1.26;68.33;100949.80;107856;1257;74416;-63
2023/01/12 18:29:46;;;;;;;72.00;26.50;;;;;;;1.41;67.89;100950.88;107936;1256;63540;-65
2023/01/12 18:32:13;;;;;;;98.20;35.70;;;;;;;1.46;67.92;100956.98;107679;1257;60130;-63
2023/01/12 18:34:46;;;;;;;101.70;34.50;;;;;;;1.44;67.09;100956.45;107855;1257;75413;-65
2023/01/12 18:37:13;;;;;;;102.50;35.50;;;;;;;1.20;67.47;100957.66;107876;1260;72145;-65
2023/01/12 18:39:42;;;;;;;96.90;34.70;;;;;;;1.28;67.59;100951.37;107867;1257;74661;-65
2023/01/12 18:44:58;;;;;;;86.70;31.90;;;;;;;1.10;68.55;100958.20;107852;1261;62399;-65
2023/01/12 18:55:41;;;;;;;83.40;31.90;;;;;;;1.12;68.44;100951.85;107901;1257;62911;-65
2023/01/12 18:58:08;;;;;;;105.30;35.00;;;;;;;1.39;68.42;100947.55;107884;1258;61519;-67
2023/01/12 19:00:35;;;;;;;98.50;35.80;;;;;;;1.65;67.75;100942.86;107743;1258;75721;-65
2023/01/12 19:03:04;;;;;;;82.90;32.90;;;;;;;1.83;66.08;100934.61;107926;1257;72748;-67
2023/01/12 19:10:26;;;;;;;97.10;35.60;;;;;;;2.10;64.70;100928.83;107730;1256;61317;-65
2023/01/12 19:17:25;;;;;;;99.30;35.50;;;;;;;2.15;64.66;100930.27;107844;1259;73715;-67
2023/01/12 19:18:25;;;;;;;99.20;34.20;;;;;;;1.78;64.64;100924.50;107743;1262;74615;-66
2023/01/12 19:28:31;;;;;;;79.00;29.00;;;;;;;1.86;64.32;100922.34;107691;1258;62779;-65
2023/01/12 19:29:10;;;;;;;88.40;33.80;;;;;;;1.39;65.79;100933.01;107630;1259;68325;-67
2023/01/12 19:31:37;;;;;;;75.50;28.80;;;;;;;1.55;65.37;100939.63;107861;1261;74648;-67
2023/01/12 19:34:04;;;;;;;102.90;38.00;;;;;;;1.49;65.39;100948.73;107685;1260;63975;-65
2023/01/12 19:36:31;;;;;;;97.70;34.90;;;;;;;1.47;65.31;100947.14;107717;1257;61162;-65
2023/01/12 19:39:00;;;;;;;92.80;34.30;;;;;;;1.61;65.51;100947.67;107724;1262;75034;-66
2023/01/12 19:44:13;;;;;;;76.60;27.10;;;;;;;1.61;65.34;100945.07;107838;1257;74844;-64
2023/01/12 19:46:40;;;;;;;131.10;42.10;;;;;;;1.77;65.33;100943.36;107698;1258;64020;-65
2023/01/12 19:49:09;;;;;;;108.70;37.20;;;;;;;1.67;64.97;100944.63;107912;1257;62720;-66
2023/01/12 19:51:37;;;;;;;102.80;38.10;;;;;;;1.67;64.57;100943.92;107854;1262;75146;-65
2023/01/12 19:54:04;;;;;;;118.50;37.10;;;;;;;1.85;63.49;100943.45;107869;1259;72332;-66
2023/01/12 19:56:32;;;;;;;88.30;27.00;;;;;;;1.55;64.12;100946.55;107740;1262;75062;-65
2023/01/12 19:58:58;;;;;;;105.70;34.70;;;;;;;1.87;63.66;100937.77;107725;1257;61927;-64
2023/01/12 20:01:27;;;;;;;139.80;43.80;;;;;;;2.10;63.68;100940.09;107778;1262;61409;-63
2023/01/12 20:03:54;;;;;;;123.70;38.90;;;;;;;1.95;63.29;100942.35;107789;1262;73895;-65
2023/01/12 20:06:21;;;;;;;125.40;42.20;;;;;;;1.63;64.77;100947.69;107736;1262;69487;-64
2023/01/12 20:08:48;;;;;;;119.00;42.10;;;;;;;1.66;64.62;100957.23;107757;1257;73745;-64
2023/01/12 20:11:15;;;;;;;108.10;39.70;;;;;;;1.66;64.21;100958.11;107818;1259;63857;-64
2023/01/12 20:13:42;;;;;;;147.20;47.20;;;;;;;1.78;63.92;100957.92;107738;1257;62384;-62
2023/01/12 22:41:23;;;;;;;86.00;34.40;;;;;;;-1.84;100.00;100926.93;105729;1283;613686;-64
2023/01/12 22:43:51;;;;;;;98.20;34.40;;;;;;;-0.56;100.00;100924.67;107046;1265;124977;-65
2023/01/12 22:46:22;;;;;;;78.70;27.00;;;;;;;-0.46;100.00;100928.69;107347;1265;59214;-65
2023/01/12 22:48:50;;;;;;;82.10;31.70;;;;;;;-0.56;100.00;100926.58;107227;1269;72548;-63
2023/01/12 22:51:19;;;;;;;87.00;30.90;;;;;;;-0.35;100.00;100927.69;107231;1266;70357;-64
2023/01/12 22:53:47;;;;;;;82.70;29.00;;;;;;;0.02;100.00;100925.30;107268;1267;73782;-64
2023/01/12 22:56:13;;;;;;;68.70;25.80;;;;;;;0.15;100.00;100922.27;107286;1266;62225;-64
2023/01/12 22:58:45;;;;;;;78.10;28.00;;;;;;;0.07;100.00;100920.05;108175;1253;60985;-65
2023/01/12 23:01:11;;;;;;;66.20;24.70;;;;;;;0.27;100.00;100915.39;108131;1252;72931;-65
2023/01/12 23:03:39;;;;;;;74.60;28.50;;;;;;;0.35;100.00;100916.22;108098;1253;71209;-64
2023/01/12 23:06:08;;;;;;;71.90;26.90;;;;;;;0.29;100.00;100918.89;108096;1252;74962;-64
2023/01/12 23:08:35;;;;;;;71.20;26.10;;;;;;;0.30;100.00;100920.48;107958;1254;63101;-65
2023/01/12 23:11:07;;;;;;;67.00;23.40;;;;;;;0.46;99.87;100919.36;108119;1253;62521;-64
2023/01/12 23:13:34;;;;;;;70.10;25.40;;;;;;;0.21;100.00;100922.70;108093;1254;74809;-65
2023/01/12 23:16:03;;;;;;;69.90;25.80;;;;;;;0.58;99.68;100921.11;108051;1254;72656;-66